Time;durP1;ratioP1;P1;durP2;ratioP2;P2;SDS_P1;SDS_P2;PMS_P1;PMS_P2;Temp;Humidity;BMP_temperature;BMP_pressure;BME280_temperature;BME280_humidity;BME280_pressure;Samples;Min_cycle;Max_cycle;Signal;HPM_P1;HPM_P2
2022/04/06 00:01:38;;;;;;;30.30;11.23;;;7.50;99.90;;;;;;5004803;28;20081;-89
2022/04/06 00:04:04;;;;;;;33.08;11.80;;;8.00;99.90;;;;;;5024346;28;20033;-90
2022/04/06 00:06:30;;;;;;;29.25;12.00;;;7.90;99.90;;;;;;5016126;28;20050;-88
2022/04/06 00:08:56;;;;;;;29.60;12.27;;;7.90;99.90;;;;;;5015553;28;20099;-82
2022/04/06 00:11:21;;;;;;;26.23;11.43;;;9.40;99.90;;;;;;5020315;28;20041;-85
2022/04/06 00:13:48;;;;;;;27.73;11.60;;;7.90;99.90;;;;;;5021594;28;20034;-79
2022/04/06 00:16:14;;;;;;;27.13;12.00;;;7.90;99.90;;;;;;5021385;28;20044;-82
2022/04/06 00:18:40;;;;;;;37.78;12.93;;;7.90;99.90;;;;;;5024223;28;20049;-89
2022/04/06 00:21:05;;;;;;;28.55;12.45;;;8.00;99.90;;;;;;5018084;28;20064;-88
2022/04/06 00:23:31;;;;;;;30.48;13.07;;;8.00;99.90;;;;;;5002505;28;20057;-89
2022/04/06 00:25:57;;;;;;;31.77;12.90;;;7.90;99.90;;;;;;5025352;28;20078;-83
2022/04/06 00:28:22;;;;;;;30.67;12.05;;;8.00;99.90;;;;;;5019637;28;20127;-89
2022/04/06 00:30:48;;;;;;;27.30;12.43;;;8.00;99.90;;;;;;5021277;28;20337;-88
2022/04/06 00:33:14;;;;;;;28.48;13.00;;;8.00;99.90;;;;;;5024140;28;20037;-87
2022/04/06 00:35:39;;;;;;;30.77;12.10;;;7.90;99.90;;;;;;5027379;28;20120;-86
2022/04/06 00:38:06;;;;;;;28.95;12.48;;;8.00;99.90;;;;;;5020318;28;20052;-82
2022/04/06 00:40:33;;;;;;;34.22;13.07;;;7.90;99.90;;;;;;5022027;28;20069;-86
2022/04/06 00:42:59;;;;;;;34.50;14.32;;;7.90;99.90;;;;;;5022451;28;20103;-80
2022/04/06 00:45:26;;;;;;;37.90;14.55;;;8.00;99.90;;;;;;5026327;28;20436;-84
2022/04/06 00:47:52;;;;;;;33.08;13.02;;;7.90;99.90;;;;;;5019225;28;20046;-85
2022/04/06 00:50:20;;;;;;;33.35;13.07;;;8.00;99.90;;;;;;5008915;28;20053;-84
2022/04/06 00:52:48;;;;;;;23.42;11.40;;;8.00;99.90;;;;;;5018598;28;20045;-86
2022/04/06 00:55:14;;;;;;;35.13;12.80;;;7.90;99.90;;;;;;5019680;28;20052;-88
2022/04/06 00:57:40;;;;;;;33.30;12.93;;;7.90;99.90;;;;;;5020385;28;20041;-87
2022/04/06 01:00:08;;;;;;;25.10;11.50;;;8.00;99.90;;;;;;5000627;28;20375;-85
2022/04/06 01:02:34;;;;;;;36.83;12.73;;;8.00;99.90;;;;;;5015265;28;20073;-88
2022/04/06 01:05:00;;;;;;;31.15;12.02;;;7.70;99.90;;;;;;5010721;28;20111;-88
2022/04/06 01:07:26;;;;;;;30.55;11.13;;;8.00;99.90;;;;;;5017485;28;20057;-88
2022/04/06 01:09:52;;;;;;;35.25;11.70;;;8.00;99.90;;;;;;5017734;28;20064;-87
2022/04/06 01:12:21;;;;;;;30.00;12.63;;;8.10;99.90;;;;;;5017415;28;20128;-88
2022/04/06 01:14:47;;;;;;;28.48;12.30;;;8.00;99.90;;;;;;5014087;28;20042;-89
2022/04/06 01:17:13;;;;;;;26.33;11.57;;;8.00;99.90;;;;;;5019903;28;20053;-90
2022/04/06 01:19:44;;;;;;;24.75;11.07;;;7.90;99.90;;;;;;5017910;28;20049;-90
2022/04/06 01:22:17;;;;;;;31.30;11.13;;;8.00;99.90;;;;;;5014203;28;20057;-92
2022/04/06 01:24:44;;;;;;;23.15;9.95;;;8.00;99.90;;;;;;5014546;28;20045;-84
2022/04/06 01:27:10;;;;;;;25.48;11.25;;;8.10;99.90;;;;;;5016001;28;20046;-89
2022/04/06 01:29:37;;;;;;;26.17;9.85;;;10.20;99.90;;;;;;5011622;28;20034;-86
2022/04/06 01:32:23;;;;;;;28.50;10.45;;;8.00;99.90;;;;;;5011819;28;20401;-83
2022/04/06 01:34:50;;;;;;;25.95;9.75;;;8.10;99.90;;;;;;5014937;28;20033;-90
2022/04/06 01:37:18;;;;;;;20.33;10.65;;;8.10;99.90;;;;;;5018283;28;20057;-82
2022/04/06 01:39:46;;;;;;;25.58;10.05;;;8.40;99.90;;;;;;5018208;28;20053;-80
2022/04/06 01:42:16;;;;;;;32.35;10.38;;;9.70;99.90;;;;;;5013174;28;20037;-90
2022/04/06 01:44:46;;;;;;;23.77;8.95;;;8.00;99.90;;;;;;5016865;28;20034;-88
2022/04/06 01:47:15;;;;;;;20.30;9.43;;;7.90;99.90;;;;;;5020137;28;20048;-85
2022/04/06 01:52:25;;;;;;;24.08;10.43;;;7.70;99.90;;;;;;5014316;28;20072;-89
2022/04/06 01:54:54;;;;;;;29.55;9.93;;;8.20;99.90;;;;;;5017441;28;20402;-90
2022/04/06 01:57:20;;;;;;;20.13;9.32;;;9.40;99.90;;;;;;5018750;28;20103;-88
2022/04/06 01:59:47;;;;;;;21.90;9.50;;;8.50;99.90;;;;;;5013542;28;20091;-90
2022/04/06 02:02:15;;;;;;;26.85;9.05;;;10.50;99.90;;;;;;5015384;28;20508;-88
2022/04/06 02:04:41;;;;;;;22.50;8.82;;;10.00;99.90;;;;;;5003581;28;20125;-91
2022/04/06 02:07:10;;;;;;;25.33;8.05;;;8.10;99.90;;;;;;5016102;28;20136;-89
2022/04/06 02:09:36;;;;;;;27.63;8.88;;;9.40;99.90;;;;;;5011943;28;20038;-88
2022/04/06 02:12:02;;;;;;;15.25;7.78;;;8.10;99.90;;;;;;5023214;28;20053;-81
2022/04/06 02:14:28;;;;;;;25.58;8.65;;;8.20;99.90;;;;;;4998439;28;20041;-83
2022/04/06 02:16:54;;;;;;;20.23;7.20;;;8.20;99.90;;;;;;5002401;28;20041;-84
2022/04/06 02:19:20;;;;;;;16.00;7.15;;;9.70;99.90;;;;;;5021480;28;20525;-86
2022/04/06 02:21:46;;;;;;;15.75;6.35;;;8.20;99.90;;;;;;5019762;28;20093;-87
2022/04/06 02:24:11;;;;;;;19.33;7.25;;;8.10;99.90;;;;;;5022092;28;20049;-83
2022/04/06 02:26:37;;;;;;;20.65;7.78;;;8.10;99.90;;;;;;5018137;28;20041;-83
2022/04/06 02:29:03;;;;;;;17.85;6.47;;;8.10;99.90;;;;;;5020664;28;20519;-83
2022/04/06 02:31:29;;;;;;;18.88;6.32;;;8.10;99.90;;;;;;5022358;28;20399;-87
2022/04/06 02:33:55;;;;;;;15.95;6.07;;;8.10;99.90;;;;;;5000047;28;20042;-89
2022/04/06 02:36:20;;;;;;;14.15;6.20;;;9.70;99.90;;;;;;5021156;28;20043;-88
2022/04/06 02:38:47;;;;;;;15.30;6.07;;;9.70;99.90;;;;;;5008652;28;20077;-84
2022/04/06 02:41:13;;;;;;;16.38;5.80;;;8.20;99.90;;;;;;5015434;28;20374;-89
2022/04/06 02:43:39;;;;;;;12.18;4.40;;;8.10;99.90;;;;;;5015263;28;20049;-83
2022/04/06 02:46:05;;;;;;;19.38;5.63;;;8.20;99.90;;;;;;5017859;28;20041;-79
2022/04/06 02:48:31;;;;;;;17.73;4.90;;;8.20;99.90;;;;;;5023331;28;20044;-91
2022/04/06 02:50:56;;;;;;;12.20;3.63;;;9.50;99.90;;;;;;5017353;28;20670;-79
2022/04/06 02:53:22;;;;;;;10.60;3.70;;;8.20;99.90;;;;;;4996199;28;20096;-91
2022/04/06 02:55:48;;;;;;;13.88;3.75;;;8.30;99.90;;;;;;5012679;28;20454;-89
2022/04/06 02:58:15;;;;;;;9.77;3.25;;;8.20;99.90;;;;;;5012084;28;20095;-87
2022/04/06 03:00:41;;;;;;;9.10;3.13;;;8.30;99.90;;;;;;5015607;28;20057;-87
2022/04/06 03:03:06;;;;;;;10.23;3.38;;;8.30;99.90;;;;;;5022178;28;20041;-85
2022/04/06 03:05:32;;;;;;;6.95;2.90;;;8.20;99.90;;;;;;5004056;28;20041;-88
2022/04/06 03:07:57;;;;;;;9.77;2.75;;;8.20;99.90;;;;;;5016644;28;20107;-87
2022/04/06 03:10:23;;;;;;;9.00;2.88;;;8.30;99.90;;;;;;5019057;28;20460;-88
2022/04/06 03:12:49;;;;;;;10.13;2.35;;;8.20;99.90;;;;;;5012991;28;20054;-87
2022/04/06 03:15:14;;;;;;;11.45;3.42;;;7.90;99.90;;;;;;5012782;28;20400;-87
2022/04/06 03:17:41;;;;;;;11.90;3.08;;;8.10;99.90;;;;;;5021331;28;20038;-85
2022/04/06 03:20:09;;;;;;;8.95;3.42;;;8.10;99.90;;;;;;5020097;28;20640;-86
2022/04/06 03:22:34;;;;;;;9.60;3.03;;;8.20;99.90;;;;;;5003706;28;20044;-88
2022/04/06 03:25:00;;;;;;;7.22;3.20;;;8.10;99.90;;;;;;5019108;28;20413;-85
2022/04/06 03:27:25;;;;;;;11.43;3.58;;;10.10;99.90;;;;;;5003044;28;20059;-86
2022/04/06 03:29:51;;;;;;;10.23;3.72;;;8.00;99.90;;;;;;5022256;28;20065;-88
2022/04/06 03:32:17;;;;;;;9.05;3.40;;;8.00;99.90;;;;;;5020539;28;20045;-83
2022/04/06 03:34:43;;;;;;;10.77;3.85;;;8.00;99.90;;;;;;5017864;28;20167;-88
2022/04/06 03:37:08;;;;;;;10.50;3.25;;;8.90;99.90;;;;;;5018888;28;20050;-87
2022/04/06 03:39:34;;;;;;;10.85;3.17;;;9.20;99.90;;;;;;5014005;28;20041;-86
2022/04/06 03:42:00;;;;;;;14.32;3.47;;;8.00;99.90;;;;;;5000504;28;20120;-88
2022/04/06 03:44:25;;;;;;;15.18;4.60;;;8.00;99.90;;;;;;5019203;28;20038;-90
2022/04/06 03:46:51;;;;;;;10.85;3.75;;;7.60;99.90;;;;;;5016251;28;20038;-84
2022/04/06 03:49:16;;;;;;;16.35;4.32;;;7.90;99.90;;;;;;5021032;28;20041;-83
2022/04/06 03:51:44;;;;;;;15.40;4.10;;;8.00;99.90;;;;;;5017474;28;20079;-85
2022/04/06 03:54:09;;;;;;;11.00;4.43;;;7.90;99.90;;;;;;5022780;28;20493;-89
2022/04/06 03:56:35;;;;;;;13.63;4.28;;;8.00;99.90;;;;;;5018318;28;20048;-89
2022/04/06 03:59:01;;;;;;;21.60;6.28;;;7.80;99.90;;;;;;5024926;28;20464;-91
2022/04/06 04:01:30;;;;;;;18.80;5.22;;;8.00;99.90;;;;;;5024027;28;20049;-90
2022/04/06 04:03:55;;;;;;;22.17;5.15;;;8.00;99.90;;;;;;5020620;28;20038;-90
2022/04/06 04:06:21;;;;;;;21.15;5.22;;;7.80;99.90;;;;;;5017876;28;20057;-89
2022/04/06 04:08:46;;;;;;;25.08;6.53;;;8.00;99.90;;;;;;5019042;28;20057;-90
2022/04/06 04:11:12;;;;;;;18.42;6.60;;;8.10;99.90;;;;;;5018146;28;20512;-90
2022/04/06 04:13:38;;;;;;;19.45;6.50;;;8.00;99.90;;;;;;5019155;28;20513;-86
2022/04/06 04:16:04;;;;;;;22.20;7.10;;;8.10;99.90;;;;;;5025854;28;20033;-90
2022/04/06 04:18:30;;;;;;;23.17;7.30;;;8.10;99.90;;;;;;5003924;28;20127;-89
2022/04/06 04:21:32;;;;;;;19.52;6.30;;;9.80;99.90;;;;;;5024778;28;20037;-85
2022/04/06 04:23:41;;;;;;;17.00;6.78;;;8.40;99.90;;;;;;5024394;28;20042;-91
2022/04/06 04:26:07;;;;;;;19.80;6.85;;;7.10;99.90;;;;;;5001892;28;20056;-91
2022/04/06 04:28:33;;;;;;;19.48;6.90;;;8.10;99.90;;;;;;5018222;28;20045;-90
2022/04/06 04:30:58;;;;;;;23.55;7.25;;;8.10;99.90;;;;;;5023395;28;20049;-89
2022/04/06 04:33:24;;;;;;;25.17;7.88;;;7.80;99.90;;;;;;5022611;28;20042;-87
2022/04/06 04:35:49;;;;;;;20.45;8.98;;;8.00;99.90;;;;;;5017890;28;20100;-90
2022/04/06 04:38:15;;;;;;;22.38;8.95;;;8.00;99.90;;;;;;5024229;28;20077;-89
2022/04/06 04:40:40;;;;;;;19.95;7.90;;;7.90;99.90;;;;;;5023908;28;20037;-88
2022/04/06 04:43:06;;;;;;;19.48;7.95;;;8.10;99.90;;;;;;5014646;28;20107;-89
2022/04/06 04:45:32;;;;;;;20.50;7.10;;;8.10;99.90;;;;;;5019995;28;20528;-89
2022/04/06 04:47:57;;;;;;;15.23;6.00;;;7.80;99.90;;;;;;5021089;28;20054;-90
2022/04/06 04:50:23;;;;;;;22.60;7.13;;;9.10;99.90;;;;;;5020288;28;20041;-89
2022/04/06 04:52:49;;;;;;;22.30;6.72;;;8.10;99.90;;;;;;5018328;28;20145;-85
2022/04/06 04:55:14;;;;;;;19.67;7.70;;;8.00;99.90;;;;;;5019092;28;20345;-92
2022/04/06 04:57:40;;;;;;;13.50;5.55;;;9.20;99.90;;;;;;5015175;28;20045;-87
2022/04/06 05:00:09;;;;;;;29.80;7.32;;;8.00;99.90;;;;;;5018851;28;20038;-80
2022/04/06 05:02:36;;;;;;;22.35;6.63;;;8.10;99.90;;;;;;5018938;28;20096;-88
2022/04/06 05:05:08;;;;;;;19.90;6.88;;;8.10;99.90;;;;;;5015989;28;20037;-89
2022/04/06 05:07:37;;;;;;;21.92;6.38;;;7.90;99.90;;;;;;5021907;28;20513;-89
2022/04/06 05:10:08;;;;;;;17.42;6.13;;;7.80;99.90;;;;;;5016871;28;20172;-88
2022/04/06 05:12:34;;;;;;;18.38;6.10;;;8.00;99.90;;;;;;5026004;28;20068;-83
2022/04/06 05:15:01;;;;;;;17.52;4.97;;;8.00;99.90;;;;;;4325871;28;10022578;-93
2022/04/06 05:17:28;;;;;;;17.15;6.63;;;9.80;99.90;;;;;;4998316;28;20120;-87
2022/04/06 05:19:54;;;;;;;26.52;6.57;;;8.40;99.90;;;;;;5021764;28;20048;-88
2022/04/06 05:22:20;;;;;;;18.42;5.95;;;7.90;99.90;;;;;;5024631;28;20044;-81
2022/04/06 05:24:46;;;;;;;22.10;7.13;;;7.90;99.90;;;;;;5016074;28;20049;-80
2022/04/06 05:27:12;;;;;;;14.98;6.47;;;7.90;99.90;;;;;;5002308;28;20108;-89
2022/04/06 05:29:37;;;;;;;17.92;6.30;;;8.00;99.90;;;;;;5018281;28;20419;-80
2022/04/06 05:32:04;;;;;;;20.88;7.28;;;7.90;99.90;;;;;;5014249;28;20184;-79
2022/04/06 05:34:30;;;;;;;21.77;5.53;;;7.90;99.90;;;;;;5014289;28;20046;-79
2022/04/06 05:36:56;;;;;;;20.08;5.78;;;7.80;99.90;;;;;;5021331;28;20048;-79
2022/04/06 05:39:22;;;;;;;18.38;5.60;;;7.90;99.90;;;;;;5018487;28;20500;-77
2022/04/06 05:41:49;;;;;;;14.05;5.45;;;7.90;99.90;;;;;;4999841;28;20041;-83
2022/04/06 05:44:16;;;;;;;17.80;6.47;;;7.70;99.90;;;;;;5020029;28;20501;-79
2022/04/06 05:46:42;;;;;;;19.55;5.28;;;7.60;99.90;;;;;;5015590;28;20049;-80
2022/04/06 05:49:07;;;;;;;22.30;6.47;;;7.80;99.90;;;;;;5016127;28;20301;-79
2022/04/06 05:51:34;;;;;;;22.30;7.50;;;7.60;99.90;;;;;;5018016;28;20385;-80
2022/04/06 05:54:00;;;;;;;22.05;7.95;;;8.70;99.90;;;;;;5002474;28;20081;-79
2022/04/06 05:56:26;;;;;;;15.55;5.97;;;7.60;99.90;;;;;;5019387;28;20408;-81
2022/04/06 05:58:51;;;;;;;15.35;4.90;;;7.80;99.90;;;;;;5015132;28;20041;-79
2022/04/06 06:01:17;;;;;;;13.15;4.53;;;7.70;99.90;;;;;;5016891;28;20275;-86
2022/04/06 06:03:43;;;;;;;17.17;4.38;;;7.60;99.90;;;;;;5015131;28;20042;-79
2022/04/06 06:06:08;;;;;;;19.83;4.82;;;7.70;99.90;;;;;;5019399;28;20573;-79
2022/04/06 06:08:34;;;;;;;15.18;4.43;;;8.50;99.90;;;;;;5004710;28;20064;-80
2022/04/06 06:11:00;;;;;;;17.85;4.30;;;7.70;99.90;;;;;;5009462;28;20172;-80
2022/04/06 06:13:25;;;;;;;13.40;5.07;;;7.70;99.90;;;;;;5020508;28;20425;-89
2022/04/06 06:15:51;;;;;;;11.90;3.63;;;7.60;99.90;;;;;;5015521;28;20045;-80
2022/04/06 06:18:16;;;;;;;20.77;4.68;;;7.60;99.90;;;;;;5020793;28;20045;-80
2022/04/06 06:20:42;;;;;;;19.42;4.50;;;8.00;99.90;;;;;;5014998;28;20437;-82
2022/04/06 06:23:08;;;;;;;15.98;4.20;;;7.60;99.90;;;;;;5018245;28;20448;-80
2022/04/06 06:25:34;;;;;;;17.30;4.88;;;7.60;99.90;;;;;;5008596;28;20394;-80
2022/04/06 06:28:00;;;;;;;14.95;4.22;;;7.60;99.90;;;;;;5015691;28;20049;-83
2022/04/06 06:30:27;;;;;;;10.73;3.55;;;7.60;99.90;;;;;;5000775;28;20048;-88
2022/04/06 06:32:54;;;;;;;11.88;3.75;;;7.60;99.90;;;;;;5017636;28;20053;-88
2022/04/06 06:35:20;;;;;;;13.90;4.90;;;7.70;99.90;;;;;;5016961;28;20052;-79
2022/04/06 06:37:48;;;;;;;11.40;3.70;;;7.70;99.90;;;;;;5023112;28;20044;-80
2022/04/06 06:40:15;;;;;;;14.07;3.80;;;7.60;99.90;;;;;;5019966;28;20076;-84
2022/04/06 06:42:41;;;;;;;21.15;4.57;;;7.70;99.90;;;;;;5018359;28;20042;-80
2022/04/06 06:45:07;;;;;;;13.85;4.55;;;7.70;99.90;;;;;;5016523;28;20052;-84
2022/04/06 06:47:33;;;;;;;14.13;3.58;;;7.70;99.90;;;;;;5014471;28;20088;-79
2022/04/06 06:49:58;;;;;;;16.58;3.08;;;7.60;99.90;;;;;;5018082;28;20076;-79
2022/04/06 06:52:24;;;;;;;16.42;3.25;;;7.60;99.90;;;;;;4999366;28;20049;-87
2022/04/06 06:54:49;;;;;;;14.07;2.65;;;7.60;99.90;;;;;;5021075;28;20034;-81
2022/04/06 06:57:15;;;;;;;12.00;2.85;;;7.20;99.90;;;;;;5021959;28;20046;-80
2022/04/06 06:59:41;;;;;;;13.55;2.53;;;7.60;99.90;;;;;;5024925;28;20357;-79
2022/04/06 07:02:08;;;;;;;14.60;2.72;;;7.20;99.90;;;;;;5025291;28;20062;-86
2022/04/06 07:04:34;;;;;;;14.30;2.50;;;7.50;99.90;;;;;;5019927;28;20705;-78
2022/04/06 07:06:59;;;;;;;16.73;2.78;;;7.30;99.90;;;;;;5023937;28;20225;-79
2022/04/06 07:09:25;;;;;;;14.15;2.92;;;7.40;99.90;;;;;;5035312;28;20105;-94
2022/04/06 07:11:52;;;;;;;16.40;2.80;;;7.60;99.90;;;;;;5004676;28;20443;-88
2022/04/06 07:14:18;;;;;;;15.07;3.08;;;8.50;99.90;;;;;;5020206;28;20557;-93
2022/04/06 07:16:44;;;;;;;10.20;2.55;;;7.60;99.90;;;;;;5020815;28;20129;-80
2022/04/06 07:19:09;;;;;;;8.63;1.63;;;7.50;99.90;;;;;;5021681;28;20377;-80
2022/04/06 07:21:35;;;;;;;11.52;2.25;;;7.60;99.90;;;;;;5022163;28;20091;-91
2022/04/06 07:24:03;;;;;;;9.32;2.53;;;7.60;99.90;;;;;;5017774;28;20073;-92
2022/04/06 07:26:29;;;;;;;9.48;2.70;;;7.50;99.90;;;;;;5002784;28;20054;-80
2022/04/06 07:28:54;;;;;;;8.68;2.10;;;6.70;99.90;;;;;;5010475;28;20044;-80
2022/04/06 07:31:20;;;;;;;10.25;2.38;;;7.60;99.90;;;;;;5002225;28;20076;-85
2022/04/06 07:33:45;;;;;;;12.85;2.15;;;7.60;99.90;;;;;;5025864;28;20038;-94
2022/04/06 07:36:11;;;;;;;15.07;2.92;;;7.50;99.90;;;;;;5002059;28;20054;-88
2022/04/06 07:38:37;;;;;;;8.32;2.00;;;7.60;99.90;;;;;;5026373;28;20072;-80
2022/04/06 07:41:03;;;;;;;13.75;3.00;;;7.60;99.90;;;;;;5018714;28;20045;-87
2022/04/06 07:43:28;;;;;;;11.90;2.72;;;7.60;99.90;;;;;;4990971;28;20485;-80
2022/04/06 07:45:54;;;;;;;8.00;1.80;;;7.60;99.90;;;;;;5019605;28;20042;-80
2022/04/06 07:48:19;;;;;;;9.27;2.05;;;7.70;99.90;;;;;;5019626;28;20054;-79
2022/04/06 07:50:45;;;;;;;9.32;1.83;;;7.70;99.90;;;;;;5001854;28;20042;-85
2022/04/06 07:53:11;;;;;;;10.85;2.75;;;7.60;99.90;;;;;;5025989;28;20565;-80
2022/04/06 07:55:37;;;;;;;10.63;2.08;;;7.60;99.90;;;;;;5022201;28;20038;-79
2022/04/06 07:58:03;;;;;;;8.60;1.88;;;7.60;99.90;;;;;;5020415;28;20143;-79
2022/04/06 08:00:33;;;;;;;15.10;3.00;;;9.30;99.90;;;;;;5019470;28;20034;-79
2022/04/06 08:02:59;;;;;;;14.00;2.95;;;8.00;99.90;;;;;;5018457;28;20053;-88
2022/04/06 08:05:25;;;;;;;13.02;3.47;;;7.40;99.90;;;;;;5003523;28;20539;-89
2022/04/06 08:07:53;;;;;;;13.10;3.58;;;7.80;99.90;;;;;;5020267;28;20072;-80
2022/04/06 08:10:20;;;;;;;15.43;2.75;;;7.60;99.90;;;;;;5004828;28;20037;-81
2022/04/06 08:12:47;;;;;;;13.55;2.80;;;7.60;99.90;;;;;;5004150;28;20073;-79
2022/04/06 08:15:14;;;;;;;15.15;3.42;;;7.80;99.90;;;;;;5019799;28;20045;-81
2022/04/06 08:17:42;;;;;;;12.90;2.95;;;7.80;99.90;;;;;;5022440;28;20136;-80
2022/04/06 08:20:09;;;;;;;16.23;3.25;;;7.90;99.90;;;;;;5018820;28;20085;-80
2022/04/06 08:22:35;;;;;;;14.68;3.00;;;7.80;99.90;;;;;;5017202;28;20520;-80
2022/04/06 08:25:02;;;;;;;9.77;2.15;;;7.80;99.90;;;;;;5018496;28;20541;-80
2022/04/06 08:27:28;;;;;;;10.35;2.58;;;7.80;99.90;;;;;;5021934;28;20125;-80
2022/04/06 08:29:54;;;;;;;14.98;2.70;;;7.80;99.90;;;;;;5021101;28;20132;-80
2022/04/06 08:32:20;;;;;;;13.68;3.00;;;7.50;99.90;;;;;;5018270;28;20045;-80
2022/04/06 08:34:46;;;;;;;8.40;2.60;;;7.80;99.90;;;;;;4994305;28;20058;-91
2022/04/06 08:37:12;;;;;;;9.88;2.42;;;7.80;99.90;;;;;;5019795;28;20125;-79
2022/04/06 08:39:37;;;;;;;12.98;2.55;;;7.90;99.90;;;;;;5020713;28;20212;-80
2022/04/06 08:42:04;;;;;;;16.02;2.92;;;7.90;99.90;;;;;;5000943;28;20049;-79
2022/04/06 08:44:29;;;;;;;9.68;1.98;;;8.00;99.90;;;;;;5017935;28;20041;-80
2022/04/06 08:47:06;;;;;;;14.05;2.53;;;8.00;99.90;;;;;;5018395;28;20052;-80
2022/04/06 08:49:33;;;;;;;9.65;1.77;;;8.00;99.90;;;;;;5020044;28;20120;-80
2022/04/06 08:52:01;;;;;;;11.80;1.90;;;7.90;99.90;;;;;;5019904;28;20057;-81
2022/04/06 08:54:27;;;;;;;15.10;2.65;;;7.90;99.90;;;;;;5016952;28;20390;-83
2022/04/06 08:56:54;;;;;;;16.42;3.45;;;7.90;99.90;;;;;;5017267;28;20036;-91
2022/04/06 08:59:19;;;;;;;15.05;2.83;;;8.00;99.90;;;;;;5020006;28;20444;-80
2022/04/06 09:01:45;;;;;;;10.63;2.22;;;8.00;99.90;;;;;;5020274;28;20045;-81
2022/04/06 09:04:10;;;;;;;12.20;2.17;;;8.00;99.90;;;;;;5018391;28;20408;-80
2022/04/06 09:06:44;;;;;;;8.75;2.33;;;8.00;99.90;;;;;;5017500;28;20049;-80
2022/04/06 09:09:10;;;;;;;15.63;2.53;;;8.10;99.90;;;;;;5019136;28;20053;-89
2022/04/06 09:11:43;;;;;;;12.77;2.40;;;8.20;99.90;;;;;;5020929;28;20049;-79
2022/04/06 09:14:09;;;;;;;8.50;2.15;;;8.10;99.90;;;;;;5017221;28;20073;-86
2022/04/06 09:16:35;;;;;;;11.43;1.85;;;8.20;99.90;;;;;;5017624;28;20041;-83
2022/04/06 09:19:11;;;;;;;11.05;2.35;;;8.40;99.90;;;;;;5012024;28;20044;-79
2022/04/06 09:21:42;;;;;;;16.85;2.47;;;8.50;99.90;;;;;;5020994;28;20046;-82
2022/04/06 09:24:19;;;;;;;10.27;2.47;;;8.50;99.90;;;;;;5017440;28;20072;-84
2022/04/06 09:26:56;;;;;;;15.35;1.80;;;8.50;99.90;;;;;;5025101;28;20038;-93
2022/04/06 09:29:22;;;;;;;12.48;3.10;;;8.60;99.90;;;;;;5018617;28;20295;-80
2022/04/06 09:31:49;;;;;;;12.23;2.47;;;8.80;99.90;;;;;;5018540;28;20089;-82
2022/04/06 09:34:15;;;;;;;13.57;3.42;;;8.70;99.90;;;;;;5002546;28;20478;-82
2022/04/06 09:36:41;;;;;;;14.85;3.30;;;8.50;99.90;;;;;;5014485;28;20038;-84
2022/04/06 09:39:07;;;;;;;13.30;3.60;;;8.70;99.90;;;;;;5017828;28;20073;-80
2022/04/06 09:41:43;;;;;;;14.20;2.60;;;8.70;99.90;;;;;;5017057;28;20083;-80
2022/04/06 09:47:38;;;;;;;13.60;3.08;;;9.70;99.90;;;;;;5019955;28;20076;-80
2022/04/06 09:50:22;;;;;;;13.15;3.75;;;9.10;99.90;;;;;;5019678;28;20057;-79
2022/04/06 09:52:51;;;;;;;15.82;2.85;;;9.20;99.90;;;;;;5021441;28;20513;-80
2022/04/06 09:55:17;;;;;;;11.63;2.25;;;9.10;99.90;;;;;;5001156;28;20519;-79
2022/04/06 09:57:50;;;;;;;19.83;3.05;;;9.20;99.90;;;;;;5016049;28;20108;-79
2022/04/06 10:00:21;;;;;;;12.85;3.05;;;9.10;99.90;;;;;;5017037;28;20053;-80
2022/04/06 10:02:54;;;;;;;13.65;2.72;;;9.20;99.90;;;;;;5002741;28;20081;-90
2022/04/06 10:05:20;;;;;;;16.10;3.45;;;9.20;99.90;;;;;;5016111;28;20053;-80
2022/04/06 10:07:48;;;;;;;15.88;3.40;;;9.20;99.90;;;;;;5014908;28;20060;-80
2022/04/06 10:10:14;;;;;;;16.67;3.00;;;9.10;99.90;;;;;;5017063;28;20042;-79
2022/04/06 10:12:40;;;;;;;12.95;2.53;;;9.20;99.90;;;;;;5018411;28;20053;-79
2022/04/06 10:15:06;;;;;;;16.15;3.53;;;8.80;99.90;;;;;;5018090;28;20049;-83
2022/04/06 10:17:32;;;;;;;18.10;3.50;;;9.20;99.90;;;;;;5018949;28;20041;-79
2022/04/06 10:20:24;;;;;;;15.55;3.45;;;9.00;99.90;;;;;;5017888;28;20042;-79
2022/04/06 10:23:05;;;;;;;14.65;2.90;;;9.30;99.90;;;;;;4961849;28;20049;-85
2022/04/06 10:25:58;;;;;;;13.38;3.22;;;9.30;99.90;;;;;;5016917;28;20037;-78
2022/04/06 10:28:24;;;;;;;18.65;3.53;;;9.30;99.90;;;;;;5005090;28;20087;-77
2022/04/06 10:31:11;;;;;;;16.63;3.75;;;9.30;99.90;;;;;;5024771;28;20050;-79
2022/04/06 10:33:37;;;;;;;13.10;3.10;;;9.40;99.90;;;;;;5005345;28;20045;-78
2022/04/06 10:36:32;;;;;;;13.68;4.00;;;9.20;99.90;;;;;;5023217;28;20454;-78
2022/04/06 10:39:07;;;;;;;17.85;4.22;;;9.30;99.90;;;;;;5020287;28;20046;-90
2022/04/06 10:41:38;;;;;;;;;;;9.20;99.90;;;;;;5021989;28;20073;-78
2022/04/06 10:44:03;;;;;;;20.83;4.40;;;11.00;99.90;;;;;;5021814;28;19925;-80
2022/04/06 10:46:39;;;;;;;13.43;2.78;;;9.20;99.90;;;;;;5022465;28;20052;-87
2022/04/06 10:49:13;;;;;;;17.27;3.10;;;9.20;99.90;;;;;;5021562;28;20042;-79
2022/04/06 10:51:56;;;;;;;13.93;3.60;;;9.10;99.90;;;;;;5000149;28;20030;-79
2022/04/06 10:54:22;;;;;;;13.25;3.25;;;9.00;99.90;;;;;;5021599;28;20396;-79
2022/04/06 10:56:55;;;;;;;17.05;3.65;;;9.10;99.90;;;;;;5018550;28;20044;-81
2022/04/06 10:59:22;;;;;;;19.88;3.95;;;9.10;99.90;;;;;;5026755;28;20045;-79
2022/04/06 11:02:09;;;;;;;18.30;4.43;;;9.10;99.90;;;;;;5020020;28;20034;-80
2022/04/06 11:04:39;;;;;;;18.33;3.83;;;9.10;99.90;;;;;;5002717;28;20053;-86
2022/04/06 11:07:05;;;;;;;20.60;4.70;;;9.20;99.90;;;;;;5020841;28;20049;-89
2022/04/06 11:12:19;;;;;;;17.52;4.57;;;9.20;99.90;;;;;;5019631;28;20096;-80
2022/04/06 11:14:47;;;;;;;21.23;3.88;;;11.10;99.90;;;;;;5020967;28;20392;-78
2022/04/06 11:17:38;;;;;;;21.30;4.30;;;9.30;99.90;;;;;;5022478;28;20129;-80
2022/04/06 11:20:04;;;;;;;16.58;3.42;;;9.50;99.90;;;;;;5020593;28;20176;-90
2022/04/06 11:22:30;;;;;;;24.58;4.75;;;9.50;99.90;;;;;;5019855;28;20132;-84
2022/04/06 11:24:56;;;;;;;14.93;3.60;;;9.50;99.90;;;;;;5024750;28;20041;-78
2022/04/06 11:27:31;;;;;;;15.15;3.65;;;9.40;99.90;;;;;;5005041;28;20436;-78
2022/04/06 11:30:00;;;;;;;20.98;3.47;;;8.50;99.90;;;;;;5017924;28;20128;-77
2022/04/06 11:32:26;;;;;;;20.90;4.15;;;10.90;99.90;;;;;;5018308;28;20159;-77
2022/04/06 11:34:59;;;;;;;13.00;2.53;;;9.10;99.90;;;;;;5004433;28;20132;-77
2022/04/06 11:37:25;;;;;;;17.05;3.78;;;11.60;99.90;;;;;;5003219;28;20539;-77
2022/04/06 11:39:57;;;;;;;23.05;3.83;;;9.70;99.90;;;;;;5020266;28;20080;-77
2022/04/06 11:42:22;;;;;;;24.38;4.00;;;10.00;99.90;;;;;;5019314;28;20102;-77
2022/04/06 11:44:48;;;;;;;15.95;3.50;;;10.10;99.90;;;;;;5000858;28;20030;-87
2022/04/06 11:47:13;;;;;;;22.00;4.18;;;10.10;99.90;;;;;;5001550;28;20040;-78
2022/04/06 11:49:39;;;;;;;23.63;3.25;;;11.10;99.90;;;;;;5021160;28;20116;-77
2022/04/06 11:52:06;;;;;;;14.70;3.67;;;10.20;99.90;;;;;;5002922;28;20038;-77
2022/04/06 11:54:32;;;;;;;19.77;3.28;;;11.70;99.90;;;;;;5002817;28;20172;-78
2022/04/06 11:56:58;;;;;;;9.48;2.47;;;9.50;99.90;;;;;;5017326;28;20121;-77
2022/04/06 11:59:25;;;;;;;16.95;4.18;;;10.30;99.90;;;;;;5009217;28;20052;-79
2022/04/06 12:01:52;;;;;;;13.80;2.78;;;10.80;99.90;;;;;;5001147;28;20570;-79
2022/04/06 12:04:24;;;;;;;16.25;2.60;;;10.40;99.90;;;;;;5003781;28;20397;-79
2022/04/06 12:06:54;;;;;;;13.70;3.00;;;11.00;99.90;;;;;;5000586;28;20391;-82
2022/04/06 12:09:21;;;;;;;16.00;3.38;;;10.80;99.90;;;;;;5020396;28;20049;-78
2022/04/06 12:11:51;;;;;;;11.60;2.95;;;11.40;99.90;;;;;;5000430;28;20517;-77
2022/04/06 12:14:18;;;;;;;15.15;3.72;;;11.00;99.90;;;;;;5025191;28;20045;-80
2022/04/06 12:16:44;;;;;;;18.40;3.67;;;11.10;99.90;;;;;;5000799;28;20092;-77
2022/04/06 12:19:13;;;;;;;8.43;2.35;;;10.90;99.90;;;;;;5019528;28;20038;-84
2022/04/06 12:21:43;;;;;;;12.43;2.42;;;11.00;99.90;;;;;;5017440;28;20076;-80
2022/04/06 12:24:11;;;;;;;12.68;1.98;;;10.90;99.90;;;;;;5003880;28;20067;-81
2022/04/06 12:26:42;;;;;;;11.95;2.03;;;10.90;99.90;;;;;;5018684;28;20377;-89
2022/04/06 12:29:13;;;;;;;17.70;3.60;;;11.10;99.90;;;;;;5016537;28;20525;-80
2022/04/06 12:31:40;;;;;;;10.05;1.95;;;11.00;99.90;;;;;;5000756;28;20125;-79
2022/04/06 12:34:06;;;;;;;12.70;2.53;;;11.00;99.90;;;;;;5020309;28;20469;-79
2022/04/06 12:36:32;;;;;;;18.15;2.80;;;12.50;99.90;;;;;;5020241;28;20048;-88
2022/04/06 12:38:59;;;;;;;9.35;1.75;;;11.00;99.90;;;;;;4999268;28;20041;-76
2022/04/06 12:41:26;;;;;;;10.70;2.50;;;11.00;99.90;;;;;;5001181;28;20045;-77
2022/04/06 12:43:56;;;;;;;15.07;3.00;;;11.10;99.90;;;;;;5019934;28;20045;-81
2022/04/06 12:46:45;;;;;;;15.05;2.85;;;10.60;99.90;;;;;;5019488;28;20057;-82
2022/04/06 12:49:17;;;;;;;10.60;2.33;;;11.40;99.90;;;;;;5000550;28;20393;-79
2022/04/06 12:51:43;;;;;;;16.92;3.42;;;11.50;99.90;;;;;;5018819;28;20041;-77
2022/04/06 12:54:09;;;;;;;14.90;3.33;;;13.00;99.90;;;;;;5019694;28;20110;-78
2022/04/06 12:56:34;;;;;;;6.85;2.33;;;11.50;99.90;;;;;;5019566;28;20052;-79